Time;durP1;ratioP1;P1;durP2;ratioP2;P2;SDS_P1;SDS_P2;PMS_P1;PMS_P2;Temp;Humidity;BMP_temperature;BMP_pressure;BME280_temperature;BME280_humidity;BME280_pressure;Samples;Min_cycle;Max_cycle;Signal;HPM_P1;HPM_P2
2021/01/28 00:02:33;;;;;;;23.15;12.75;;;2.70;99.90;;;;;;5018369;28;20037;-63
2021/01/28 00:05:21;;;;;;;24.80;13.60;;;2.70;99.90;;;;;;5031838;28;20087;-63
2021/01/28 00:08:08;;;;;;;23.33;12.63;;;2.70;99.90;;;;;;5031872;28;20043;-63
2021/01/28 00:10:55;;;;;;;22.67;12.20;;;2.70;99.90;;;;;;5017820;28;20126;-63
2021/01/28 00:13:41;;;;;;;24.38;12.13;;;2.70;99.90;;;;;;5018391;28;20033;-63
2021/01/28 00:16:27;;;;;;;22.98;11.90;;;2.70;99.90;;;;;;5031162;28;20033;-63
2021/01/28 00:19:13;;;;;;;29.17;11.68;;;2.80;99.90;;;;;;5032199;28;20519;-63
2021/01/28 00:21:59;;;;;;;26.40;13.40;;;2.70;99.90;;;;;;5032127;28;20430;-62
2021/01/28 00:24:45;;;;;;;31.52;13.48;;;2.70;99.90;;;;;;5032242;28;20119;-63
2021/01/28 00:27:32;;;;;;;25.42;13.02;;;2.70;99.90;;;;;;5030390;28;20091;-63
2021/01/28 00:30:23;;;;;;;28.25;13.43;;;2.70;99.90;;;;;;5032059;28;20117;-63
2021/01/28 00:33:10;;;;;;;;;;;2.70;99.90;;;;;;5018060;28;20045;-62
2021/01/28 00:35:57;;;;;;;24.88;12.48;;;2.70;99.90;;;;;;5017491;28;19909;-63
2021/01/28 00:38:43;;;;;;;25.55;12.45;;;2.80;99.90;;;;;;5031459;28;20049;-63
2021/01/28 00:41:29;;;;;;;28.70;14.02;;;2.80;99.90;;;;;;5031968;28;20037;-63
2021/01/28 00:44:15;;;;;;;29.33;14.30;;;2.80;99.90;;;;;;5031956;28;20033;-63
2021/01/28 00:47:02;;;;;;;23.38;13.13;;;2.80;99.90;;;;;;5031213;28;20041;-63
2021/01/28 00:49:48;;;;;;;26.98;13.88;;;2.80;99.90;;;;;;5017265;28;20086;-63
2021/01/28 00:52:34;;;;;;;25.40;12.95;;;2.80;99.90;;;;;;5035444;28;20107;-63
2021/01/28 00:55:20;;;;;;;26.70;12.48;;;2.80;99.90;;;;;;5035339;28;20037;-63
2021/01/28 00:58:07;;;;;;;26.95;13.50;;;2.80;99.90;;;;;;5021000;28;20049;-64
2021/01/28 01:00:55;;;;;;;26.60;13.95;;;2.80;99.90;;;;;;5034587;28;20127;-63
2021/01/28 01:03:41;;;;;;;30.02;12.95;;;2.80;99.90;;;;;;5022468;28;20041;-63
2021/01/28 01:06:27;;;;;;;28.77;13.25;;;2.90;99.90;;;;;;5035869;28;20029;-62
2021/01/28 01:09:13;;;;;;;24.30;12.07;;;2.90;99.90;;;;;;5035082;28;20048;-62
2021/01/28 01:11:59;;;;;;;23.00;11.80;;;3.00;99.90;;;;;;5034430;28;20059;-62
2021/01/28 01:14:45;;;;;;;24.13;13.52;;;3.00;99.90;;;;;;5034497;28;20095;-63
2021/01/28 01:17:31;;;;;;;27.38;13.65;;;3.00;99.90;;;;;;5035571;28;20459;-62
2021/01/28 01:20:22;;;;;;;27.85;13.07;;;3.10;99.90;;;;;;5035394;28;20514;-62
2021/01/28 01:23:08;;;;;;;27.00;11.40;;;3.00;99.90;;;;;;5020800;28;20076;-63
2021/01/28 01:25:54;;;;;;;24.00;12.60;;;3.10;99.90;;;;;;5034993;28;20151;-63
2021/01/28 01:28:40;;;;;;;25.63;12.82;;;3.10;99.90;;;;;;5034897;28;20103;-62
2021/01/28 01:31:26;;;;;;;23.85;12.30;;;3.10;99.90;;;;;;5034921;28;20034;-62
2021/01/28 01:34:12;;;;;;;32.60;13.13;;;3.10;99.90;;;;;;5034652;28;20041;-62
2021/01/28 01:36:58;;;;;;;26.35;12.63;;;3.00;99.90;;;;;;5035376;28;20029;-62
2021/01/28 01:39:44;;;;;;;27.40;12.63;;;3.00;99.90;;;;;;5035298;28;20036;-63
2021/01/28 01:42:31;;;;;;;25.92;12.55;;;3.10;99.90;;;;;;5034997;28;20037;-63
2021/01/28 01:45:48;;;;;;;24.70;12.15;;;3.10;99.90;;;;;;5034984;28;20034;-63
2021/01/28 01:48:50;;;;;;;24.67;11.73;;;3.10;99.90;;;;;;5035001;28;20455;-63
2021/01/28 01:51:41;;;;;;;25.52;12.00;;;3.10;99.90;;;;;;5021396;28;20116;-63
2021/01/28 01:54:33;;;;;;;29.10;12.47;;;3.20;99.90;;;;;;5034331;28;20124;-63
2021/01/28 01:57:29;;;;;;;24.50;11.88;;;3.20;99.90;;;;;;5020437;28;20930;-63
2021/01/28 02:00:20;;;;;;;29.38;13.95;;;3.20;99.90;;;;;;5019873;28;20052;-63
2021/01/28 02:03:12;;;;;;;29.50;13.32;;;3.20;99.90;;;;;;5005797;28;20107;-63
2021/01/28 02:06:08;;;;;;;28.27;14.43;;;3.20;99.90;;;;;;5020283;28;20037;-63
2021/01/28 02:08:56;;;;;;;27.95;12.73;;;3.10;99.90;;;;;;5034121;28;20113;-63
2021/01/28 02:11:43;;;;;;;27.30;14.00;;;3.20;99.90;;;;;;5035263;28;20397;-62
2021/01/28 02:14:29;;;;;;;26.13;12.30;;;3.20;99.90;;;;;;5034564;28;20065;-63
2021/01/28 02:17:24;;;;;;;26.90;12.90;;;3.20;99.90;;;;;;5020433;28;20034;-63
2021/01/28 02:21:01;;;;;;;27.50;13.35;;;3.20;99.90;;;;;;5020419;28;20037;-63
2021/01/28 02:24:22;;;;;;;27.33;13.43;;;3.20;99.90;;;;;;4953435;29;20151;-63
2021/01/28 02:27:09;;;;;;;25.58;12.70;;;3.30;99.90;;;;;;5034387;28;20534;-63
2021/01/28 02:29:55;;;;;;;26.10;11.57;;;3.30;99.90;;;;;;5019989;28;20489;-63
2021/01/28 02:32:41;;;;;;;27.63;12.80;;;3.30;99.90;;;;;;5020439;28;20034;-62
2021/01/28 02:35:30;;;;;;;25.40;11.23;;;3.30;99.90;;;;;;5033577;28;20406;-63
2021/01/28 02:38:16;;;;;;;26.83;12.18;;;3.40;99.90;;;;;;5032733;28;20041;-63
2021/01/28 02:41:06;;;;;;;22.70;11.52;;;3.50;99.90;;;;;;5034083;28;20095;-63
2021/01/28 02:43:53;;;;;;;26.85;12.93;;;3.50;99.90;;;;;;5020131;28;20041;-63
2021/01/28 02:46:39;;;;;;;28.40;12.80;;;3.50;99.90;;;;;;5020184;28;20069;-62
2021/01/28 02:49:25;;;;;;;27.88;11.85;;;3.50;99.90;;;;;;5032855;28;20449;-63
2021/01/28 02:52:11;;;;;;;24.17;10.32;;;3.60;99.90;;;;;;5033266;28;20600;-64
2021/01/28 02:54:57;;;;;;;24.30;11.80;;;3.70;99.90;;;;;;5033799;28;20465;-62
2021/01/28 02:57:43;;;;;;;24.27;11.32;;;3.70;99.90;;;;;;5033836;28;20517;-63
2021/01/28 03:00:34;;;;;;;23.90;11.23;;;3.70;99.90;;;;;;5032731;28;20041;-62
2021/01/28 03:03:20;;;;;;;23.42;11.35;;;3.70;99.90;;;;;;5010486;28;20045;-62
2021/01/28 03:06:08;;;;;;;23.98;11.07;;;3.70;99.90;;;;;;5033908;28;20077;-63
2021/01/28 03:08:55;;;;;;;24.20;10.90;;;3.80;99.90;;;;;;5019546;28;20033;-63
2021/01/28 03:11:41;;;;;;;23.58;11.80;;;3.80;99.90;;;;;;5033132;28;20406;-63
2021/01/28 03:14:27;;;;;;;24.35;10.70;;;3.80;99.90;;;;;;5032361;28;20099;-63
2021/01/28 03:17:13;;;;;;;23.85;11.57;;;3.70;99.90;;;;;;5017793;28;20040;-63
2021/01/28 03:20:00;;;;;;;23.05;11.63;;;3.80;99.90;;;;;;5032718;28;20064;-63
2021/01/28 03:22:46;;;;;;;29.15;13.23;;;3.80;99.90;;;;;;5031677;28;20098;-63
2021/01/28 03:25:32;;;;;;;22.45;11.43;;;3.70;99.90;;;;;;5033115;28;20037;-63
2021/01/28 03:28:19;;;;;;;24.38;11.05;;;3.80;99.90;;;;;;5031668;28;20033;-62
2021/01/28 03:31:04;;;;;;;22.45;11.35;;;3.80;99.90;;;;;;5017296;28;20037;-62
2021/01/28 03:33:50;;;;;;;23.52;11.80;;;3.80;99.90;;;;;;5032429;28;20470;-62
2021/01/28 03:36:36;;;;;;;22.65;11.75;;;3.80;99.90;;;;;;5033164;28;20041;-62
2021/01/28 03:39:23;;;;;;;22.38;11.60;;;3.90;99.90;;;;;;5031519;28;20405;-63
2021/01/28 03:42:09;;;;;;;27.15;12.68;;;3.90;99.90;;;;;;5031685;28;20041;-62
2021/01/28 03:44:55;;;;;;;26.42;11.80;;;3.80;99.90;;;;;;5032811;28;20044;-63
2021/01/28 03:47:42;;;;;;;24.33;10.75;;;3.80;99.90;;;;;;5027037;28;20758;-63
2021/01/28 03:50:33;;;;;;;26.88;13.00;;;3.80;99.90;;;;;;5018506;28;20459;-63
2021/01/28 03:53:19;;;;;;;;;;;3.80;99.90;;;;;;5018649;28;20481;-63
2021/01/28 03:56:05;;;;;;;23.17;11.70;;;3.80;99.90;;;;;;5032218;28;19913;-62
2021/01/28 03:58:51;;;;;;;25.35;12.18;;;3.80;99.90;;;;;;5031087;28;20076;-63
2021/01/28 04:01:37;;;;;;;25.48;12.70;;;3.80;99.90;;;;;;5031966;28;20033;-63
2021/01/28 04:04:23;;;;;;;25.75;13.73;;;3.80;99.90;;;;;;5032261;28;20037;-64
2021/01/28 04:07:10;;;;;;;26.92;13.40;;;3.80;99.90;;;;;;5032989;28;20041;-63
2021/01/28 04:09:56;;;;;;;22.30;11.43;;;3.90;99.90;;;;;;5031795;28;20029;-63
2021/01/28 04:12:42;;;;;;;24.95;12.02;;;3.90;99.90;;;;;;5031803;28;20038;-62
2021/01/28 04:15:28;;;;;;;26.92;13.05;;;4.00;99.90;;;;;;5031566;28;20040;-62
2021/01/28 04:18:18;;;;;;;21.10;11.27;;;4.00;99.90;;;;;;5031924;28;20030;-63
2021/01/28 04:21:04;;;;;;;25.23;12.20;;;4.00;99.90;;;;;;5031488;28;20065;-63
2021/01/28 04:23:50;;;;;;;23.63;12.18;;;4.00;99.90;;;;;;5031211;28;20116;-63
2021/01/28 04:26:36;;;;;;;25.40;12.27;;;4.00;99.90;;;;;;5031393;28;20033;-63
2021/01/28 04:29:22;;;;;;;17.35;8.77;;;4.00;99.90;;;;;;5032431;28;20398;-63
2021/01/28 04:32:08;;;;;;;22.98;12.07;;;4.00;99.90;;;;;;5032008;28;20379;-63
2021/01/28 04:34:54;;;;;;;23.95;11.10;;;4.00;99.90;;;;;;5031314;28;20375;-63
2021/01/28 04:37:41;;;;;;;20.33;10.48;;;4.00;99.90;;;;;;5031570;28;20439;-63
2021/01/28 04:40:34;;;;;;;22.70;10.35;;;4.00;99.90;;;;;;5016657;28;20036;-62
2021/01/28 04:43:25;;;;;;;29.08;11.65;;;4.00;99.90;;;;;;5031102;28;20041;-62
2021/01/28 04:46:28;;;;;;;;;;;4.00;99.90;;;;;;5004701;28;20033;-62
2021/01/28 04:49:17;;;;;;;21.00;11.10;;;4.00;99.90;;;;;;4990467;28;19917;-62
2021/01/28 04:52:05;;;;;;;24.38;12.02;;;4.00;99.90;;;;;;4992239;28;20034;-63
2021/01/28 04:54:56;;;;;;;22.92;11.52;;;4.00;99.90;;;;;;5001837;28;20037;-62
2021/01/28 04:57:43;;;;;;;22.40;11.23;;;4.10;99.90;;;;;;5011064;28;20033;-62
2021/01/28 05:00:30;;;;;;;23.20;10.98;;;4.10;99.90;;;;;;5017645;28;20054;-62
2021/01/28 05:03:26;;;;;;;23.08;10.43;;;4.10;99.90;;;;;;5016761;28;20041;-61
2021/01/28 05:06:14;;;;;;;22.38;10.77;;;4.10;99.90;;;;;;5017467;28;20033;-62
2021/01/28 05:09:00;;;;;;;20.70;10.80;;;4.20;99.90;;;;;;5017227;28;20043;-63
2021/01/28 05:11:57;;;;;;;21.92;10.48;;;4.20;99.90;;;;;;5031051;28;20530;-63
2021/01/28 05:14:43;;;;;;;27.00;12.52;;;4.20;99.90;;;;;;5018932;28;20077;-62
2021/01/28 05:17:30;;;;;;;20.25;10.52;;;4.20;99.90;;;;;;5009436;28;20120;-61
2021/01/28 05:20:21;;;;;;;21.60;9.65;;;4.30;99.90;;;;;;5017208;28;20045;-61
2021/01/28 05:23:27;;;;;;;20.67;10.93;;;4.30;99.90;;;;;;5016587;28;20047;-60
2021/01/28 05:26:38;;;;;;;20.83;10.43;;;4.30;99.90;;;;;;5017164;28;20030;-61
2021/01/28 05:29:31;;;;;;;22.10;9.43;;;4.30;99.90;;;;;;5031309;28;20041;-60
2021/01/28 05:32:42;;;;;;;17.33;9.00;;;4.30;99.90;;;;;;5030776;28;20033;-61
2021/01/28 05:35:32;;;;;;;23.73;11.23;;;4.40;99.90;;;;;;5030736;28;20061;-62
2021/01/28 05:38:18;;;;;;;21.67;11.27;;;4.40;99.90;;;;;;5019911;28;20041;-61
2021/01/28 05:41:05;;;;;;;23.10;11.40;;;4.40;99.90;;;;;;5035134;28;20041;-61
2021/01/28 05:43:53;;;;;;;23.50;11.13;;;4.40;99.90;;;;;;5034624;28;20088;-61
2021/01/28 05:46:39;;;;;;;23.55;11.18;;;4.40;99.90;;;;;;5019635;28;20033;-62
2021/01/28 05:49:25;;;;;;;23.42;10.85;;;4.40;99.90;;;;;;5034277;28;20467;-61
2021/01/28 05:52:30;;;;;;;20.20;10.57;;;4.40;99.90;;;;;;5034530;28;20038;-60
2021/01/28 05:55:23;;;;;;;22.75;10.85;;;4.30;99.90;;;;;;5034771;28;20041;-63
2021/01/28 05:58:34;;;;;;;23.23;11.25;;;4.40;99.90;;;;;;5019014;28;20474;-62
2021/01/28 06:01:39;;;;;;;20.95;11.13;;;4.40;99.90;;;;;;5022011;28;20115;-62
2021/01/28 06:05:40;;;;;;;19.27;9.77;;;4.40;99.90;;;;;;5033176;28;20402;-63
2021/01/28 06:09:13;;;;;;;21.67;11.30;;;4.40;99.90;;;;;;4935133;29;20527;-64
2021/01/28 06:12:23;;;;;;;22.55;10.18;;;4.40;99.90;;;;;;4924677;29;20040;-67
2021/01/28 06:15:37;;;;;;;20.80;10.27;;;4.50;99.90;;;;;;4933982;28;20043;-63
2021/01/28 06:18:56;;;;;;;18.10;10.10;;;4.40;99.90;;;;;;4922562;29;20534;-62
2021/01/28 06:22:02;;;;;;;20.67;11.05;;;4.40;99.90;;;;;;4935610;28;20051;-62
2021/01/28 06:25:06;;;;;;;20.27;10.07;;;4.40;99.90;;;;;;4931143;29;20051;-63
2021/01/28 06:28:23;;;;;;;19.40;10.40;;;4.40;99.90;;;;;;4921948;29;20099;-63
2021/01/28 06:31:38;;;;;;;21.27;10.55;;;4.30;99.90;;;;;;4933889;29;20051;-63
2021/01/28 06:34:55;;;;;;;18.88;9.60;;;4.30;99.90;;;;;;4913172;29;20461;-63
2021/01/28 06:38:29;;;;;;;22.60;9.35;;;4.30;99.90;;;;;;4944968;28;20071;-62
2021/01/28 06:41:35;;;;;;;18.17;9.73;;;4.40;99.90;;;;;;5032653;28;20037;-62
2021/01/28 06:44:45;;;;;;;22.20;10.15;;;4.30;99.90;;;;;;5019491;28;20530;-62
2021/01/28 06:47:43;;;;;;;18.60;10.18;;;4.30;99.90;;;;;;5017886;28;20084;-63
2021/01/28 06:50:56;;;;;;;16.50;9.45;;;4.30;99.90;;;;;;5032475;28;20045;-63
2021/01/28 06:54:06;;;;;;;17.45;9.60;;;4.40;99.90;;;;;;5021707;28;20120;-64
2021/01/28 06:57:10;;;;;;;21.40;9.95;;;4.40;99.90;;;;;;5023116;28;20038;-63
2021/01/28 07:00:19;;;;;;;18.17;9.38;;;4.50;99.90;;;;;;5020221;28;20057;-60
2021/01/28 07:03:34;;;;;;;17.27;9.70;;;4.40;99.90;;;;;;5021324;28;20036;-61
2021/01/28 07:06:34;;;;;;;33.88;16.77;;;4.40;99.90;;;;;;5021021;28;20116;-62
2021/01/28 07:09:48;;;;;;;17.65;9.25;;;4.40;99.90;;;;;;5018499;28;20037;-62
2021/01/28 07:12:46;;;;;;;16.05;8.95;;;4.30;99.90;;;;;;5033318;28;20041;-62
2021/01/28 07:15:32;;;;;;;19.58;9.63;;;4.40;99.90;;;;;;5019455;28;20131;-62
2021/01/28 07:18:54;;;;;;;15.70;9.18;;;4.40;99.90;;;;;;5018581;28;20037;-62
2021/01/28 07:21:47;;;;;;;15.68;7.72;;;4.50;99.90;;;;;;5020503;28;20042;-62
2021/01/28 07:24:37;;;;;;;19.35;9.80;;;4.60;99.90;;;;;;5010685;28;20596;-62
2021/01/28 07:27:53;;;;;;;16.25;8.80;;;4.50;99.90;;;;;;5019204;28;20049;-62
2021/01/28 07:31:03;;;;;;;19.10;9.52;;;4.50;99.90;;;;;;5032849;28;20479;-62
2021/01/28 07:34:14;;;;;;;19.17;9.35;;;4.50;99.90;;;;;;5021245;28;20402;-62
2021/01/28 07:37:18;;;;;;;15.27;8.38;;;4.50;99.90;;;;;;5032910;28;20037;-61
2021/01/28 07:40:05;;;;;;;18.85;9.57;;;4.50;99.90;;;;;;5031247;28;20041;-62
2021/01/28 07:43:03;;;;;;;22.55;9.10;;;4.50;99.90;;;;;;5032768;28;20037;-61
2021/01/28 07:46:27;;;;;;;14.77;8.13;;;4.60;99.90;;;;;;5018075;28;20037;-62
2021/01/28 07:49:23;;;;;;;15.40;8.15;;;4.50;99.90;;;;;;5032818;28;20371;-62
2021/01/28 07:52:15;;;;;;;13.50;7.35;;;4.60;99.90;;;;;;5018671;28;20029;-62
2021/01/28 07:55:03;;;;;;;13.98;8.18;;;4.60;99.90;;;;;;5031211;28;20217;-62
2021/01/28 07:57:49;;;;;;;16.92;8.40;;;4.50;99.90;;;;;;5018480;28;20549;-62
2021/01/28 08:00:40;;;;;;;18.33;8.10;;;4.50;99.90;;;;;;5031684;28;20075;-62
2021/01/28 08:03:43;;;;;;;14.45;8.07;;;4.50;99.90;;;;;;5012813;28;20037;-61
2021/01/28 08:06:33;;;;;;;14.55;7.40;;;4.50;99.90;;;;;;5005556;28;20475;-62
2021/01/28 08:09:19;;;;;;;13.85;7.10;;;4.50;99.90;;;;;;4976268;28;20471;-62
2021/01/28 08:12:06;;;;;;;16.45;7.07;;;4.60;99.90;;;;;;5001991;28;20082;-62
2021/01/28 08:14:55;;;;;;;18.20;7.63;;;4.60;99.90;;;;;;4996555;28;20116;-62
2021/01/28 08:17:42;;;;;;;12.43;6.82;;;4.70;99.90;;;;;;4999893;28;20038;-63
2021/01/28 08:20:32;;;;;;;15.50;8.77;;;4.70;99.90;;;;;;5012431;28;20037;-63
2021/01/28 08:23:26;;;;;;;13.82;7.70;;;4.60;99.90;;;;;;5013052;28;20044;-63
2021/01/28 08:26:38;;;;;;;13.25;7.40;;;4.70;99.90;;;;;;4995187;28;20088;-63
2021/01/28 08:29:24;;;;;;;12.90;7.15;;;4.70;99.90;;;;;;4993690;28;20455;-63
2021/01/28 08:32:27;;;;;;;15.07;5.95;;;4.70;99.90;;;;;;4993765;28;20384;-63
2021/01/28 08:35:44;;;;;;;12.60;6.25;;;4.70;99.90;;;;;;5005427;28;20430;-61
2021/01/28 08:38:34;;;;;;;10.45;5.85;;;4.70;99.90;;;;;;4998615;28;20080;-63
2021/01/28 08:41:25;;;;;;;11.98;5.60;;;4.70;99.90;;;;;;4992811;28;20121;-63
2021/01/28 08:44:16;;;;;;;11.02;5.38;;;4.70;99.90;;;;;;4999282;28;20429;-63
2021/01/28 08:47:25;;;;;;;;;;;4.70;99.90;;;;;;5012561;28;20124;-61
2021/01/28 08:50:19;;;;;;;8.80;4.78;;;4.70;99.90;;;;;;5016350;28;20004;-61
2021/01/28 08:53:19;;;;;;;10.10;5.45;;;4.70;99.90;;;;;;4991726;28;20104;-62
2021/01/28 08:56:18;;;;;;;7.33;4.43;;;4.70;99.90;;;;;;4979817;28;20038;-62
2021/01/28 08:59:14;;;;;;;13.40;5.25;;;4.70;99.90;;;;;;4986005;28;20046;-63
2021/01/28 09:02:01;;;;;;;8.32;4.65;;;4.80;99.90;;;;;;5011481;28;20108;-62
2021/01/28 09:04:58;;;;;;;8.55;4.72;;;4.80;99.90;;;;;;4996528;28;20442;-63
2021/01/28 09:07:59;;;;;;;8.45;4.53;;;4.70;99.90;;;;;;4993258;28;20033;-63
2021/01/28 09:10:45;;;;;;;10.80;4.80;;;4.70;99.90;;;;;;5011889;28;20108;-62
2021/01/28 09:13:31;;;;;;;8.45;4.72;;;4.70;99.90;;;;;;5001678;28;20116;-63
2021/01/28 09:16:20;;;;;;;10.38;4.25;;;4.90;99.90;;;;;;5001863;28;20490;-62
2021/01/28 09:19:15;;;;;;;9.38;5.07;;;4.80;99.90;;;;;;5001415;28;20034;-62
2021/01/28 09:22:06;;;;;;;10.05;4.75;;;4.80;99.90;;;;;;5000244;28;20030;-62
2021/01/28 09:24:52;;;;;;;8.68;5.00;;;4.90;99.90;;;;;;5000425;28;20034;-62
2021/01/28 09:27:38;;;;;;;8.52;4.60;;;4.90;99.90;;;;;;5009421;28;20137;-62
2021/01/28 09:30:36;;;;;;;12.18;4.75;;;4.90;99.90;;;;;;4992883;28;20128;-62
2021/01/28 09:33:37;;;;;;;9.63;4.85;;;4.80;99.90;;;;;;5015513;28;20116;-62
2021/01/28 09:36:29;;;;;;;7.35;4.35;;;4.80;99.90;;;;;;5016684;28;20121;-63
2021/01/28 09:39:29;;;;;;;10.70;5.00;;;4.90;99.90;;;;;;5000594;28;20034;-62
2021/01/28 09:42:33;;;;;;;11.18;4.65;;;4.90;99.90;;;;;;5001127;28;20033;-62
2021/01/28 09:45:25;;;;;;;8.00;4.93;;;4.90;99.90;;;;;;5001576;28;20452;-63
2021/01/28 09:48:11;;;;;;;11.55;4.60;;;4.90;99.90;;;;;;5016003;28;20479;-61
2021/01/28 09:50:57;;;;;;;9.60;4.63;;;5.00;99.90;;;;;;5013957;28;20437;-63
2021/01/28 09:54:11;;;;;;;9.73;4.88;;;5.00;99.90;;;;;;4994478;28;20542;-63
2021/01/28 09:56:57;;;;;;;8.55;5.15;;;5.10;99.90;;;;;;5014397;28;20565;-62
2021/01/28 09:59:43;;;;;;;10.00;4.80;;;5.00;99.90;;;;;;5001280;28;20352;-62
2021/01/28 10:02:40;;;;;;;9.20;5.53;;;5.10;99.90;;;;;;4980928;28;20399;-63
2021/01/28 10:05:30;;;;;;;9.25;5.32;;;5.20;99.90;;;;;;4995894;28;20043;-62
2021/01/28 10:08:17;;;;;;;12.80;4.93;;;5.20;99.90;;;;;;4996045;28;20058;-62
2021/01/28 10:11:03;;;;;;;12.23;5.45;;;5.20;99.90;;;;;;4981347;28;20480;-62
2021/01/28 10:13:50;;;;;;;10.32;5.90;;;5.30;99.90;;;;;;4995663;28;20035;-63
2021/01/28 10:16:36;;;;;;;13.27;6.32;;;5.30;99.90;;;;;;4995497;28;20042;-62
2021/01/28 10:19:22;;;;;;;10.77;5.38;;;5.30;99.90;;;;;;4995652;28;20046;-63
2021/01/28 10:22:20;;;;;;;8.52;5.10;;;5.40;99.90;;;;;;4980373;28;20486;-62
2021/01/28 10:25:09;;;;;;;10.80;5.30;;;5.40;99.90;;;;;;4981533;28;20034;-63
2021/01/28 10:27:56;;;;;;;11.77;5.68;;;5.50;99.90;;;;;;4995423;28;20046;-62
2021/01/28 10:30:42;;;;;;;12.02;6.55;;;5.60;99.90;;;;;;4993998;28;20491;-63
2021/01/28 10:33:30;;;;;;;10.38;5.93;;;5.60;99.90;;;;;;4995285;28;20035;-63
2021/01/28 10:36:16;;;;;;;11.60;6.30;;;5.60;99.90;;;;;;4995220;28;20121;-61
2021/01/28 10:39:03;;;;;;;10.85;6.13;;;5.60;99.90;;;;;;4995597;28;20038;-62
2021/01/28 10:41:50;;;;;;;10.88;5.55;;;5.70;99.90;;;;;;4993907;28;20049;-63
2021/01/28 10:44:36;;;;;;;11.85;6.10;;;5.70;99.90;;;;;;4995189;28;20046;-62
2021/01/28 10:47:22;;;;;;;11.07;5.90;;;5.70;99.90;;;;;;4987253;28;20041;-64
2021/01/28 10:50:09;;;;;;;10.88;6.30;;;5.70;99.90;;;;;;4994474;28;20046;-62
2021/01/28 10:52:56;;;;;;;8.88;5.35;;;5.80;99.90;;;;;;4994270;28;20034;-65
2021/01/28 10:55:42;;;;;;;11.15;6.65;;;5.80;99.90;;;;;;4994883;28;20106;-62
2021/01/28 10:58:28;;;;;;;11.48;5.47;;;5.90;99.90;;;;;;5005535;28;20505;-64
2021/01/28 11:01:14;;;;;;;9.77;5.40;;;6.00;99.90;;;;;;5033524;28;20053;-62
2021/01/28 11:04:00;;;;;;;10.07;4.85;;;6.00;99.90;;;;;;5033408;28;20501;-63
2021/01/28 11:06:46;;;;;;;10.25;4.45;;;6.10;99.90;;;;;;5033909;28;20029;-61
2021/01/28 11:09:32;;;;;;;11.30;4.57;;;6.20;99.90;;;;;;5018867;28;20037;-61
2021/01/28 11:12:18;;;;;;;7.82;4.40;;;6.30;99.90;;;;;;5033328;28;20525;-62
2021/01/28 11:15:06;;;;;;;7.88;4.40;;;6.30;99.90;;;;;;5032661;28;20030;-62
2021/01/28 11:17:53;;;;;;;8.02;4.35;;;6.40;99.90;;;;;;5032842;28;20030;-61
2021/01/28 11:20:39;;;;;;;7.03;4.93;;;6.40;99.90;;;;;;5033831;28;20095;-63
2021/01/28 11:23:25;;;;;;;6.57;4.43;;;6.50;99.90;;;;;;5031998;28;20124;-63
2021/01/28 11:26:12;;;;;;;5.93;3.15;;;6.50;99.90;;;;;;5019384;28;20071;-67
2021/01/28 11:28:58;;;;;;;5.63;3.13;;;6.70;99.90;;;;;;5031651;28;20072;-62
2021/01/28 11:31:44;;;;;;;5.68;3.33;;;6.70;99.90;;;;;;5033492;28;20099;-62
2021/01/28 11:34:31;;;;;;;5.93;3.22;;;6.80;99.90;;;;;;5018095;28;20041;-63
2021/01/28 11:37:17;;;;;;;6.43;3.17;;;6.80;99.90;;;;;;5022961;28;20029;-64
2021/01/28 11:40:06;;;;;;;6.20;3.55;;;6.90;99.90;;;;;;5008123;28;20176;-63
2021/01/28 11:42:53;;;;;;;6.57;3.10;;;7.00;99.90;;;;;;5014011;28;20040;-62
2021/01/28 11:45:39;;;;;;;4.30;2.67;;;7.00;99.90;;;;;;5013017;28;20485;-62
2021/01/28 11:48:25;;;;;;;5.60;3.63;;;7.10;99.90;;;;;;5010910;28;20636;-62
2021/01/28 11:51:11;;;;;;;8.00;3.17;;;7.20;99.90;;;;;;5013630;28;20449;-63
2021/01/28 11:53:57;;;;;;;4.25;2.50;;;7.20;99.90;;;;;;5004936;28;20031;-62
2021/01/28 11:56:43;;;;;;;5.25;2.88;;;7.30;99.90;;;;;;5003714;28;20038;-63
2021/01/28 11:59:29;;;;;;;5.38;2.50;;;7.30;99.90;;;;;;5016114;28;20064;-63
2021/01/28 12:02:16;;;;;;;4.53;2.58;;;7.40;99.90;;;;;;5012961;28;20042;-62
2021/01/28 12:05:02;;;;;;;5.72;2.92;;;7.40;99.90;;;;;;5012051;28;20416;-63
2021/01/28 12:07:50;;;;;;;6.32;3.03;;;7.50;99.90;;;;;;4997775;28;20553;-63
2021/01/28 12:10:36;;;;;;;4.65;2.80;;;7.60;99.90;;;;;;5012724;28;20037;-63
2021/01/28 12:13:22;;;;;;;4.50;2.30;;;7.60;99.90;;;;;;4985090;28;20133;-62
2021/01/28 12:16:09;;;;;;;3.92;2.40;;;7.70;99.90;;;;;;5002574;28;20045;-63
2021/01/28 12:18:55;;;;;;;3.60;1.77;;;7.70;99.90;;;;;;4977700;28;20030;-63
2021/01/28 12:21:42;;;;;;;3.75;2.65;;;7.80;99.90;;;;;;4993706;28;20120;-62
2021/01/28 12:24:32;;;;;;;5.45;2.45;;;7.90;99.90;;;;;;4993391;28;20034;-62
2021/01/28 12:27:18;;;;;;;5.38;2.88;;;8.00;99.90;;;;;;4992670;28;20101;-62
2021/01/28 12:30:07;;;;;;;6.07;2.28;;;8.00;99.90;;;;;;4993195;28;20138;-62
2021/01/28 12:32:53;;;;;;;4.43;2.35;;;8.10;99.90;;;;;;4979114;28;20121;-62
2021/01/28 12:35:39;;;;;;;5.25;2.53;;;8.20;99.90;;;;;;5010398;28;20479;-64
2021/01/28 12:38:26;;;;;;;5.05;2.33;;;8.20;99.90;;;;;;5010826;28;20449;-61
2021/01/28 12:41:12;;;;;;;4.43;1.98;;;8.30;99.90;;;;;;5010597;28;20129;-62
2021/01/28 12:43:58;;;;;;;5.72;2.00;;;8.40;99.90;;;;;;5011547;28;20472;-62
2021/01/28 12:46:44;;;;;;;3.40;1.98;;;8.40;99.90;;;;;;5010854;28;20046;-62
2021/01/28 12:49:32;;;;;;;3.22;1.90;;;8.50;99.90;;;;;;5013196;28;20696;-62
2021/01/28 12:52:18;;;;;;;6.60;2.92;;;8.50;99.90;;;;;;4996915;28;20038;-64
2021/01/28 12:55:07;;;;;;;2.92;2.00;;;8.60;99.90;;;;;;4998025;28;20368;-63
2021/01/28 12:57:53;;;;;;;3.90;2.15;;;8.70;99.90;;;;;;4997649;28;20040;-62
2021/01/28 13:00:39;;;;;;;4.78;2.35;;;8.80;99.90;;;;;;5030745;28;20045;-63
2021/01/28 13:03:26;;;;;;;3.38;1.95;;;8.80;99.90;;;;;;5032268;28;20030;-62
2021/01/28 13:06:12;;;;;;;3.47;1.95;;;8.80;99.90;;;;;;5031451;28;20068;-62
2021/01/28 13:08:58;;;;;;;3.13;2.00;;;8.90;99.90;;;;;;5030784;28;20498;-63
2021/01/28 13:11:44;;;;;;;4.25;1.80;;;8.90;99.90;;;;;;5017235;28;20497;-63
2021/01/28 13:14:30;;;;;;;4.05;2.28;;;8.90;99.90;;;;;;5031296;28;20073;-64
2021/01/28 13:17:17;;;;;;;3.95;1.92;;;9.00;99.90;;;;;;5017475;28;20033;-62
2021/01/28 13:20:05;;;;;;;4.95;1.95;;;9.00;99.90;;;;;;5030182;28;20033;-62
2021/01/28 13:22:52;;;;;;;4.55;1.73;;;9.10;99.90;;;;;;5016119;28;20037;-63
2021/01/28 13:25:38;;;;;;;3.30;1.80;;;9.20;99.90;;;;;;5031633;28;20572;-63
2021/01/28 13:28:24;;;;;;;2.90;1.48;;;9.20;99.90;;;;;;5030882;28;20068;-63
2021/01/28 13:31:10;;;;;;;2.08;1.17;;;9.30;99.90;;;;;;5003416;28;20140;-63
2021/01/28 13:33:56;;;;;;;4.18;0.98;;;9.50;99.90;;;;;;5017110;28;20041;-62
2021/01/28 13:36:42;;;;;;;3.28;0.50;;;9.80;99.90;;;;;;5031310;28;20036;-62
2021/01/28 13:39:28;;;;;;;1.42;0.60;;;10.20;99.90;;;;;;5032033;28;20429;-62
2021/01/28 13:42:14;;;;;;;3.15;1.27;;;10.30;99.90;;;;;;5031796;28;20045;-62
2021/01/28 13:45:02;;;;;;;1.00;0.43;;;10.50;99.90;;;;;;5016480;28;20040;-62
2021/01/28 13:47:49;;;;;;;0.55;0.30;;;10.70;99.90;;;;;;5030714;28;20073;-62
2021/01/28 13:50:38;;;;;;;1.02;0.60;;;10.80;99.90;;;;;;5029870;28;20030;-63
2021/01/28 13:53:24;;;;;;;0.80;0.40;;;10.90;99.90;;;;;;5028581;28;20061;-63
2021/01/28 13:56:10;;;;;;;1.25;0.60;;;11.00;99.90;;;;;;5028342;28;20112;-62
2021/01/28 13:58:56;;;;;;;1.10;0.52;;;11.00;99.90;;;;;;5033070;28;20100;-63
2021/01/28 14:01:42;;;;;;;4.78;0.90;;;10.90;99.90;;;;;;5032571;28;20415;-63
2021/01/28 14:04:28;;;;;;;1.08;0.50;;;11.00;99.90;;;;;;5034134;28;20045;-63
2021/01/28 14:07:15;;;;;;;1.17;0.60;;;11.00;99.90;;;;;;5033896;28;20037;-62
2021/01/28 14:10:01;;;;;;;1.30;0.70;;;11.00;99.90;;;;;;5017795;28;20339;-63
2021/01/28 14:12:47;;;;;;;1.05;0.50;;;11.10;99.90;;;;;;5033666;28;20487;-63
2021/01/28 14:15:38;;;;;;;1.23;0.50;;;11.20;99.90;;;;;;5033750;28;20486;-63
2021/01/28 14:18:24;;;;;;;2.05;0.55;;;11.40;99.90;;;;;;5033592;28;20033;-63
2021/01/28 14:21:10;;;;;;;3.17;0.60;;;11.60;99.90;;;;;;5031346;28;20612;-62
2021/01/28 14:23:56;;;;;;;0.90;0.60;;;11.80;99.90;;;;;;5018276;28;20032;-63
2021/01/28 14:26:43;;;;;;;1.25;0.70;;;11.90;99.90;;;;;;5027086;28;20073;-63
2021/01/28 14:29:30;;;;;;;0.90;0.52;;;12.00;99.90;;;;;;5032990;28;20072;-62
2021/01/28 14:32:18;;;;;;;2.25;0.90;;;12.00;99.90;;;;;;5018833;28;20088;-62
2021/01/28 14:35:06;;;;;;;1.35;0.80;;;12.00;99.90;;;;;;5017286;28;20565;-62
2021/01/28 14:37:53;;;;;;;2.38;1.20;;;12.30;99.90;;;;;;5031214;28;20132;-62
2021/01/28 14:40:39;;;;;;;0.30;0.20;;;12.60;99.90;;;;;;5013405;28;20064;-63
2021/01/28 14:43:25;;;;;;;0.43;0.30;;;13.00;99.90;;;;;;5014452;28;20069;-63
2021/01/28 14:46:11;;;;;;;0.80;0.35;;;13.20;99.90;;;;;;5014466;28;20042;-62
2021/01/28 14:48:57;;;;;;;1.00;0.40;;;13.20;99.90;;;;;;5014876;28;20118;-62
2021/01/28 14:51:43;;;;;;;1.80;0.60;;;13.20;99.90;;;;;;5028417;28;20116;-62